sensor_id;sensor_type;location;lat;lon;timestamp;pressure;altitude;pressure_sealevel;temperature;humidity
69971;BME280;57301;50.328;8.542;2022-11-20T00:01:19;98079.81;;;0.62;86.40
69971;BME280;57301;50.328;8.542;2022-11-20T00:03:46;98075.81;;;0.56;86.94
69971;BME280;57301;50.328;8.542;2022-11-20T00:06:15;98079.69;;;0.63;87.43
69971;BME280;57301;50.328;8.542;2022-11-20T00:08:42;98079.81;;;0.74;86.79
69971;BME280;57301;50.328;8.542;2022-11-20T00:11:11;98079.81;;;0.74;85.91
69971;BME280;57301;50.328;8.542;2022-11-20T00:13:42;98075.19;;;0.65;86.43
69971;BME280;57301;50.328;8.542;2022-11-20T00:16:10;98080.84;;;0.72;86.41
69971;BME280;57301;50.328;8.542;2022-11-20T00:18:37;98077.09;;;0.76;86.37
69971;BME280;57301;50.328;8.542;2022-11-20T00:21:05;98071.00;;;0.75;86.70
69971;BME280;57301;50.328;8.542;2022-11-20T00:23:32;98080.16;;;0.83;86.70
69971;BME280;57301;50.328;8.542;2022-11-20T00:26:03;98069.53;;;0.84;86.82
69971;BME280;57301;50.328;8.542;2022-11-20T00:28:30;98062.19;;;0.89;86.79
69971;BME280;57301;50.328;8.542;2022-11-20T00:31:05;98051.56;;;0.78;86.74
69971;BME280;57301;50.328;8.542;2022-11-20T00:33:32;98050.63;;;0.92;86.90
69971;BME280;57301;50.328;8.542;2022-11-20T00:36:00;98046.13;;;0.81;86.22
69971;BME280;57301;50.328;8.542;2022-11-20T00:38:27;98050.56;;;0.80;86.95
69971;BME280;57301;50.328;8.542;2022-11-20T00:40:56;98044.34;;;0.82;86.88
69971;BME280;57301;50.328;8.542;2022-11-20T00:43:22;98047.50;;;0.74;87.47
69971;BME280;57301;50.328;8.542;2022-11-20T00:45:49;98052.09;;;0.70;88.04
69971;BME280;57301;50.328;8.542;2022-11-20T00:48:16;98051.56;;;0.65;87.91
69971;BME280;57301;50.328;8.542;2022-11-20T00:50:42;98048.75;;;0.68;88.07
69971;BME280;57301;50.328;8.542;2022-11-20T00:53:09;98042.97;;;0.76;87.25
69971;BME280;57301;50.328;8.542;2022-11-20T00:55:35;98039.09;;;0.82;86.94
69971;BME280;57301;50.328;8.542;2022-11-20T00:58:02;98035.63;;;0.68;87.33
69971;BME280;57301;50.328;8.542;2022-11-20T01:00:30;98043.28;;;0.71;87.91
69971;BME280;57301;50.328;8.542;2022-11-20T01:02:56;98044.88;;;0.74;87.97
69971;BME280;57301;50.328;8.542;2022-11-20T01:05:22;98039.00;;;0.83;87.80
69971;BME280;57301;50.328;8.542;2022-11-20T01:07:49;98045.59;;;0.76;87.68
69971;BME280;57301;50.328;8.542;2022-11-20T01:10:15;98040.13;;;0.66;88.82
69971;BME280;57301;50.328;8.542;2022-11-20T01:12:42;98037.09;;;0.72;88.30
69971;BME280;57301;50.328;8.542;2022-11-20T01:15:09;98046.56;;;0.75;88.85
69971;BME280;57301;50.328;8.542;2022-11-20T01:17:35;98045.31;;;0.80;88.60
69971;BME280;57301;50.328;8.542;2022-11-20T01:20:02;98042.47;;;0.84;87.88
69971;BME280;57301;50.328;8.542;2022-11-20T01:22:28;98053.19;;;0.80;87.55
69971;BME280;57301;50.328;8.542;2022-11-20T01:24:55;98049.19;;;0.88;87.55
69971;BME280;57301;50.328;8.542;2022-11-20T01:27:21;98045.81;;;0.86;87.43
69971;BME280;57301;50.328;8.542;2022-11-20T01:29:48;98042.88;;;0.77;87.41
69971;BME280;57301;50.328;8.542;2022-11-20T01:32:14;98040.34;;;0.76;88.17
69971;BME280;57301;50.328;8.542;2022-11-20T01:34:41;98039.09;;;0.82;88.30
69971;BME280;57301;50.328;8.542;2022-11-20T01:37:07;98032.91;;;0.83;87.96
69971;BME280;57301;50.328;8.542;2022-11-20T01:39:34;98044.22;;;0.70;88.37
69971;BME280;57301;50.328;8.542;2022-11-20T01:42:00;98035.09;;;0.76;88.41
69971;BME280;57301;50.328;8.542;2022-11-20T01:44:52;98041.09;;;0.78;88.09
69971;BME280;57301;50.328;8.542;2022-11-20T01:50:03;98031.94;;;0.71;87.70
69971;BME280;57301;50.328;8.542;2022-11-20T01:52:35;98033.31;;;0.64;87.86
69971;BME280;57301;50.328;8.542;2022-11-20T01:55:11;98034.56;;;0.58;87.27
69971;BME280;57301;50.328;8.542;2022-11-20T01:57:40;98032.66;;;0.47;87.51
69971;BME280;57301;50.328;8.542;2022-11-20T02:00:10;98035.28;;;0.47;87.58
69971;BME280;57301;50.328;8.542;2022-11-20T02:02:39;98038.00;;;0.46;86.75
69971;BME280;57301;50.328;8.542;2022-11-20T02:05:35;98038.94;;;0.45;86.83
69971;BME280;57301;50.328;8.542;2022-11-20T02:08:03;98032.31;;;0.39;86.72
69971;BME280;57301;50.328;8.542;2022-11-20T02:10:30;98048.19;;;0.38;87.15
69971;BME280;57301;50.328;8.542;2022-11-20T02:12:58;98039.34;;;0.39;87.48
69971;BME280;57301;50.328;8.542;2022-11-20T02:15:44;98042.72;;;0.41;87.58
69971;BME280;57301;50.328;8.542;2022-11-20T02:18:11;98035.16;;;0.49;86.92
69971;BME280;57301;50.328;8.542;2022-11-20T02:20:42;98047.44;;;0.48;86.48
69971;BME280;57301;50.328;8.542;2022-11-20T02:23:35;98046.06;;;0.43;86.26
69971;BME280;57301;50.328;8.542;2022-11-20T02:26:06;98047.00;;;0.42;86.41
69971;BME280;57301;50.328;8.542;2022-11-20T02:28:35;98042.72;;;0.41;86.53
69971;BME280;57301;50.328;8.542;2022-11-20T02:31:02;98028.31;;;0.34;86.10
69971;BME280;57301;50.328;8.542;2022-11-20T02:33:29;98039.22;;;0.28;86.70
69971;BME280;57301;50.328;8.542;2022-11-20T02:35:55;98031.88;;;0.20;87.11
69971;BME280;57301;50.328;8.542;2022-11-20T02:38:22;98030.09;;;0.20;87.11
69971;BME280;57301;50.328;8.542;2022-11-20T02:40:49;98031.53;;;0.24;86.61
69971;BME280;57301;50.328;8.542;2022-11-20T02:43:21;98030.81;;;0.22;86.29
69971;BME280;57301;50.328;8.542;2022-11-20T02:45:47;98033.94;;;0.15;87.38
69971;BME280;57301;50.328;8.542;2022-11-20T02:48:14;98036.38;;;0.31;87.17
69971;BME280;57301;50.328;8.542;2022-11-20T02:50:40;98026.44;;;0.36;87.26
69971;BME280;57301;50.328;8.542;2022-11-20T02:53:07;98023.31;;;0.43;86.65
69971;BME280;57301;50.328;8.542;2022-11-20T02:55:34;98023.31;;;0.43;86.59
69971;BME280;57301;50.328;8.542;2022-11-20T02:58:00;98028.22;;;0.35;87.48
69971;BME280;57301;50.328;8.542;2022-11-20T03:00:27;98023.09;;;0.34;87.64
69971;BME280;57301;50.328;8.542;2022-11-20T03:02:53;98020.72;;;0.43;87.51
69971;BME280;57301;50.328;8.542;2022-11-20T03:05:20;98012.28;;;0.38;88.00
69971;BME280;57301;50.328;8.542;2022-11-20T03:07:46;98006.22;;;0.38;88.11
69971;BME280;57301;50.328;8.542;2022-11-20T03:10:13;98007.78;;;0.40;87.50
69971;BME280;57301;50.328;8.542;2022-11-20T03:12:39;98007.13;;;0.37;88.20
69971;BME280;57301;50.328;8.542;2022-11-20T03:15:06;98000.03;;;0.39;87.70
69971;BME280;57301;50.328;8.542;2022-11-20T03:17:33;98014.50;;;0.44;87.89
69971;BME280;57301;50.328;8.542;2022-11-20T03:19:59;98002.13;;;0.46;88.21
69971;BME280;57301;50.328;8.542;2022-11-20T03:22:28;98011.88;;;0.44;88.09
69971;BME280;57301;50.328;8.542;2022-11-20T03:24:55;98011.56;;;0.49;87.55
69971;BME280;57301;50.328;8.542;2022-11-20T03:27:22;98018.69;;;0.47;87.46
69971;BME280;57301;50.328;8.542;2022-11-20T03:29:48;98019.13;;;0.53;87.82
69971;BME280;57301;50.328;8.542;2022-11-20T03:32:14;98019.78;;;0.57;88.13
69971;BME280;57301;50.328;8.542;2022-11-20T03:34:41;98017.56;;;0.64;87.80
69971;BME280;57301;50.328;8.542;2022-11-20T03:37:07;98013.06;;;0.66;87.39
69971;BME280;57301;50.328;8.542;2022-11-20T03:39:34;98010.13;;;0.70;87.10
69971;BME280;57301;50.328;8.542;2022-11-20T03:42:00;98015.25;;;0.59;87.04
69971;BME280;57301;50.328;8.542;2022-11-20T03:44:27;98006.78;;;0.56;87.75
69971;BME280;57301;50.328;8.542;2022-11-20T03:46:53;98004.75;;;0.59;88.18
69971;BME280;57301;50.328;8.542;2022-11-20T03:49:19;97999.63;;;0.70;86.87
69971;BME280;57301;50.328;8.542;2022-11-20T03:51:46;97998.66;;;0.59;87.23
69971;BME280;57301;50.328;8.542;2022-11-20T03:54:13;97992.69;;;0.57;87.65
69971;BME280;57301;50.328;8.542;2022-11-20T03:56:40;97997.13;;;0.56;88.23
69971;BME280;57301;50.328;8.542;2022-11-20T03:59:09;97993.13;;;0.63;87.85
69971;BME280;57301;50.328;8.542;2022-11-20T04:01:36;97992.81;;;0.68;86.76
69971;BME280;57301;50.328;8.542;2022-11-20T04:04:12;97999.50;;;0.59;87.18
69971;BME280;57301;50.328;8.542;2022-11-20T04:06:38;97986.63;;;0.56;87.66
69971;BME280;57301;50.328;8.542;2022-11-20T04:09:05;97992.59;;;0.58;87.98
69971;BME280;57301;50.328;8.542;2022-11-20T04:11:35;97996.59;;;0.64;87.71
69971;BME280;57301;50.328;8.542;2022-11-20T04:14:04;97987.66;;;0.66;87.82
69971;BME280;57301;50.328;8.542;2022-11-20T04:16:33;97989.31;;;0.67;87.54
69971;BME280;57301;50.328;8.542;2022-11-20T04:19:09;97988.81;;;0.62;87.43
69971;BME280;57301;50.328;8.542;2022-11-20T04:21:36;97980.31;;;0.59;88.05
69971;BME280;57301;50.328;8.542;2022-11-20T04:24:04;97986.50;;;0.58;88.47
69971;BME280;57301;50.328;8.542;2022-11-20T04:26:30;97988.06;;;0.73;87.90
69971;BME280;57301;50.328;8.542;2022-11-20T04:28:58;97980.53;;;0.68;86.55
69971;BME280;57301;50.328;8.542;2022-11-20T04:31:27;97968.03;;;0.72;86.47
69971;BME280;57301;50.328;8.542;2022-11-20T04:33:54;97971.59;;;0.71;86.94
69971;BME280;57301;50.328;8.542;2022-11-20T04:36:26;97958.38;;;0.72;87.32
69971;BME280;57301;50.328;8.542;2022-11-20T04:38:55;97972.25;;;0.62;87.20
69971;BME280;57301;50.328;8.542;2022-11-20T04:41:25;97966.66;;;0.66;87.06
69971;BME280;57301;50.328;8.542;2022-11-20T04:43:54;97961.53;;;0.65;86.72
69971;BME280;57301;50.328;8.542;2022-11-20T04:46:39;97962.25;;;0.54;86.85
69971;BME280;57301;50.328;8.542;2022-11-20T04:49:06;97973.69;;;0.40;87.29
69971;BME280;57301;50.328;8.542;2022-11-20T04:51:33;97981.78;;;0.37;88.41
69971;BME280;57301;50.328;8.542;2022-11-20T04:53:59;97989.53;;;0.51;88.62
69971;BME280;57301;50.328;8.542;2022-11-20T04:56:26;97977.16;;;0.66;88.90
69971;BME280;57301;50.328;8.542;2022-11-20T04:58:53;97975.72;;;0.75;88.58
69971;BME280;57301;50.328;8.542;2022-11-20T05:01:22;97977.56;;;0.73;88.37
69971;BME280;57301;50.328;8.542;2022-11-20T05:03:49;97971.50;;;0.72;88.41
69971;BME280;57301;50.328;8.542;2022-11-20T05:06:18;97963.44;;;0.75;88.64
69971;BME280;57301;50.328;8.542;2022-11-20T05:08:44;97970.22;;;0.78;88.66
69971;BME280;57301;50.328;8.542;2022-11-20T05:11:13;97967.50;;;0.79;88.67
69971;BME280;57301;50.328;8.542;2022-11-20T05:13:41;97968.25;;;0.82;89.10
69971;BME280;57301;50.328;8.542;2022-11-20T05:16:17;97978.84;;;0.93;88.65
69971;BME280;57301;50.328;8.542;2022-11-20T05:18:44;97973.38;;;0.96;88.09
69971;BME280;57301;50.328;8.542;2022-11-20T05:21:11;97975.47;;;0.91;87.69
69971;BME280;57301;50.328;8.542;2022-11-20T05:23:39;97975.47;;;0.91;87.82
69971;BME280;57301;50.328;8.542;2022-11-20T05:26:07;97984.84;;;0.82;87.67
69971;BME280;57301;50.328;8.542;2022-11-20T05:28:34;97985.78;;;0.81;87.33
69971;BME280;57301;50.328;8.542;2022-11-20T05:31:21;97987.75;;;0.77;87.66
69971;BME280;57301;50.328;8.542;2022-11-20T05:33:53;97980.94;;;0.88;87.63
69971;BME280;57301;50.328;8.542;2022-11-20T05:36:20;97971.06;;;0.91;87.26
69971;BME280;57301;50.328;8.542;2022-11-20T05:38:47;97977.25;;;0.77;87.53
69971;BME280;57301;50.328;8.542;2022-11-20T05:41:18;97977.16;;;0.66;88.43
69971;BME280;57301;50.328;8.542;2022-11-20T05:43:46;97974.66;;;0.65;87.61
69971;BME280;57301;50.328;8.542;2022-11-20T05:46:15;97976.53;;;0.50;88.39
69971;BME280;57301;50.328;8.542;2022-11-20T05:48:44;97974.50;;;0.28;89.92
69971;BME280;57301;50.328;8.542;2022-11-20T05:51:15;97976.94;;;0.31;90.52
69971;BME280;57301;50.328;8.542;2022-11-20T05:53:42;97970.41;;;0.24;91.08
69971;BME280;57301;50.328;8.542;2022-11-20T05:56:17;97982.78;;;0.22;91.49
69971;BME280;57301;50.328;8.542;2022-11-20T05:58:44;97977.56;;;0.35;91.03
69971;BME280;57301;50.328;8.542;2022-11-20T06:03:44;97966.91;;;0.11;92.79
69971;BME280;57301;50.328;8.542;2022-11-20T06:06:14;97963.47;;;0.23;93.32
69971;BME280;57301;50.328;8.542;2022-11-20T06:08:41;97963.75;;;0.06;94.16
69971;BME280;57301;50.328;8.542;2022-11-20T06:11:09;97957.09;;;0.27;94.05
69971;BME280;57301;50.328;8.542;2022-11-20T06:13:36;97958.03;;;0.13;94.64
69971;BME280;57301;50.328;8.542;2022-11-20T06:16:08;97955.97;;;0.44;94.13
69971;BME280;57301;50.328;8.542;2022-11-20T06:18:35;97946.75;;;0.64;93.08
69971;BME280;57301;50.328;8.542;2022-11-20T06:21:11;97941.38;;;0.52;93.09
69971;BME280;57301;50.328;8.542;2022-11-20T06:23:39;97953.44;;;0.55;93.11
69971;BME280;57301;50.328;8.542;2022-11-20T06:26:10;97951.97;;;0.51;93.80
69971;BME280;57301;50.328;8.542;2022-11-20T06:28:37;97948.31;;;0.53;93.72
69971;BME280;57301;50.328;8.542;2022-11-20T06:31:05;97942.44;;;0.63;93.30
69971;BME280;57301;50.328;8.542;2022-11-20T06:33:32;97935.81;;;0.57;93.61
69971;BME280;57301;50.328;8.542;2022-11-20T06:36:00;97926.59;;;0.64;93.52
69971;BME280;57301;50.328;8.542;2022-11-20T06:38:34;97933.09;;;0.71;93.34
69971;BME280;57301;50.328;8.542;2022-11-20T06:41:00;97931.06;;;0.88;93.27
69971;BME280;57301;50.328;8.542;2022-11-20T06:43:28;97929.16;;;1.02;92.64
69971;BME280;57301;50.328;8.542;2022-11-20T06:45:57;97936.06;;;1.03;92.05
69971;BME280;57301;50.328;8.542;2022-11-20T06:48:25;97943.31;;;1.13;91.74
69971;BME280;57301;50.328;8.542;2022-11-20T06:50:51;97946.13;;;1.22;91.82
69971;BME280;57301;50.328;8.542;2022-11-20T06:53:18;97950.09;;;1.28;91.79
69971;BME280;57301;50.328;8.542;2022-11-20T06:55:46;97948.09;;;1.31;91.75
69971;BME280;57301;50.328;8.542;2022-11-20T06:58:14;97946.19;;;1.33;91.09
69971;BME280;57301;50.328;8.542;2022-11-20T07:00:41;97947.16;;;1.32;91.28
69971;BME280;57301;50.328;8.542;2022-11-20T07:03:09;97945.88;;;1.38;91.23
69971;BME280;57301;50.328;8.542;2022-11-20T07:05:36;97947.53;;;1.39;91.01
69971;BME280;57301;50.328;8.542;2022-11-20T07:08:04;97942.91;;;1.43;90.76
69971;BME280;57301;50.328;8.542;2022-11-20T07:10:32;97949.34;;;1.39;90.82
69971;BME280;57301;50.328;8.542;2022-11-20T07:12:58;97947.25;;;1.31;90.77
69971;BME280;57301;50.328;8.542;2022-11-20T07:15:26;97955.09;;;1.07;91.17
69971;BME280;57301;50.328;8.542;2022-11-20T07:17:52;97966.81;;;1.27;91.62
69971;BME280;57301;50.328;8.542;2022-11-20T07:20:19;97965.25;;;1.24;91.39
69971;BME280;57301;50.328;8.542;2022-11-20T07:22:45;97968.88;;;1.34;91.04
69971;BME280;57301;50.328;8.542;2022-11-20T07:25:12;97955.09;;;1.44;90.92
69971;BME280;57301;50.328;8.542;2022-11-20T07:27:38;97957.72;;;1.44;90.54
69971;BME280;57301;50.328;8.542;2022-11-20T07:30:05;97970.34;;;1.39;91.08
69971;BME280;57301;50.328;8.542;2022-11-20T07:32:33;97966.00;;;1.50;91.03
69971;BME280;57301;50.328;8.542;2022-11-20T07:34:59;97969.72;;;1.48;90.80
69971;BME280;57301;50.328;8.542;2022-11-20T07:37:26;97979.47;;;1.46;90.98
69971;BME280;57301;50.328;8.542;2022-11-20T07:39:52;97965.38;;;1.47;91.57
69971;BME280;57301;50.328;8.542;2022-11-20T07:42:18;97969.66;;;1.60;90.88
69971;BME280;57301;50.328;8.542;2022-11-20T07:44:45;97975.34;;;1.54;90.46
69971;BME280;57301;50.328;8.542;2022-11-20T07:47:11;97970.13;;;1.66;90.23
69971;BME280;57301;50.328;8.542;2022-11-20T07:49:38;97971.66;;;1.57;89.54
69971;BME280;57301;50.328;8.542;2022-11-20T07:52:04;97981.78;;;1.50;90.36
69971;BME280;57301;50.328;8.542;2022-11-20T07:54:31;97985.94;;;1.53;90.52
69971;BME280;57301;50.328;8.542;2022-11-20T07:56:57;97995.63;;;1.52;90.26
69971;BME280;57301;50.328;8.542;2022-11-20T07:59:24;97987.31;;;1.58;90.19
69971;BME280;57301;50.328;8.542;2022-11-20T08:01:50;97994.22;;;1.59;90.30
69971;BME280;57301;50.328;8.542;2022-11-20T08:04:17;97994.22;;;1.72;90.29
69971;BME280;57301;50.328;8.542;2022-11-20T08:06:44;97992.06;;;1.77;89.41
69971;BME280;57301;50.328;8.542;2022-11-20T08:09:10;97991.59;;;1.72;90.10
69971;BME280;57301;50.328;8.542;2022-11-20T08:11:37;97996.03;;;1.83;89.49
69971;BME280;57301;50.328;8.542;2022-11-20T08:14:22;97998.13;;;1.91;89.50
69971;BME280;57301;50.328;8.542;2022-11-20T08:16:49;97989.09;;;2.06;89.58
69971;BME280;57301;50.328;8.542;2022-11-20T08:19:17;97987.25;;;2.19;89.28
69971;BME280;57301;50.328;8.542;2022-11-20T08:21:44;97981.69;;;2.35;88.83
69971;BME280;57301;50.328;8.542;2022-11-20T08:24:11;97983.75;;;2.42;87.92
69971;BME280;57301;50.328;8.542;2022-11-20T08:26:39;97985.03;;;2.37;87.88
69971;BME280;57301;50.328;8.542;2022-11-20T08:29:06;97994.63;;;2.49;88.30
69971;BME280;57301;50.328;8.542;2022-11-20T08:31:32;97994.53;;;2.62;87.25
69971;BME280;57301;50.328;8.542;2022-11-20T08:34:00;97997.44;;;2.81;87.23
69971;BME280;57301;50.328;8.542;2022-11-20T08:36:33;97994.09;;;2.79;86.82
69971;BME280;57301;50.328;8.542;2022-11-20T08:39:01;97996.88;;;2.89;86.55
69971;BME280;57301;50.328;8.542;2022-11-20T08:41:29;98004.09;;;3.20;86.45
69971;BME280;57301;50.328;8.542;2022-11-20T08:44:02;98008.38;;;3.44;85.00
69971;BME280;57301;50.328;8.542;2022-11-20T08:46:35;98008.84;;;3.60;84.45
69971;BME280;57301;50.328;8.542;2022-11-20T08:49:07;98004.53;;;3.48;83.82
69971;BME280;57301;50.328;8.542;2022-11-20T08:51:34;98015.34;;;3.34;84.26
69971;BME280;57301;50.328;8.542;2022-11-20T08:54:01;98004.66;;;3.46;83.64
69971;BME280;57301;50.328;8.542;2022-11-20T08:56:28;98002.16;;;3.56;83.39
69971;BME280;57301;50.328;8.542;2022-11-20T08:58:55;98009.66;;;3.72;83.78
69971;BME280;57301;50.328;8.542;2022-11-20T09:01:41;98002.19;;;3.88;82.24
69971;BME280;57301;50.328;8.542;2022-11-20T09:04:08;97997.56;;;3.69;82.71
69971;BME280;57301;50.328;8.542;2022-11-20T09:06:34;98007.00;;;3.83;83.16
69971;BME280;57301;50.328;8.542;2022-11-20T09:09:01;98010.75;;;3.69;82.26
69971;BME280;57301;50.328;8.542;2022-11-20T09:11:32;98009.16;;;3.78;82.41
69971;BME280;57301;50.328;8.542;2022-11-20T09:14:00;98009.38;;;3.86;83.46
69971;BME280;57301;50.328;8.542;2022-11-20T09:16:28;98017.00;;;3.68;82.91
69971;BME280;57301;50.328;8.542;2022-11-20T09:18:55;98006.06;;;3.73;82.10
69971;BME280;57301;50.328;8.542;2022-11-20T09:21:41;98007.72;;;3.74;82.07
69971;BME280;57301;50.328;8.542;2022-11-20T09:24:08;98007.47;;;3.88;82.37
69971;BME280;57301;50.328;8.542;2022-11-20T09:26:34;98001.94;;;3.91;82.16
69971;BME280;57301;50.328;8.542;2022-11-20T09:29:01;98003.16;;;3.87;82.26
69971;BME280;57301;50.328;8.542;2022-11-20T09:31:27;98000.06;;;3.82;81.87
69971;BME280;57301;50.328;8.542;2022-11-20T09:33:54;98011.81;;;3.56;84.58
69971;BME280;57301;50.328;8.542;2022-11-20T09:36:20;98011.81;;;3.78;84.37
69971;BME280;57301;50.328;8.542;2022-11-20T09:38:47;98015.75;;;3.84;84.31
69971;BME280;57301;50.328;8.542;2022-11-20T09:47:02;98020.56;;;4.11;84.17
69971;BME280;57301;50.328;8.542;2022-11-20T09:52:27;98011.31;;;4.16;83.89
69971;BME280;57301;50.328;8.542;2022-11-20T09:54:56;98008.69;;;4.16;84.21
69971;BME280;57301;50.328;8.542;2022-11-20T09:57:31;98003.88;;;4.21;83.96
69971;BME280;57301;50.328;8.542;2022-11-20T10:00:01;98004.19;;;4.28;82.67
69971;BME280;57301;50.328;8.542;2022-11-20T10:02:34;98006.00;;;4.27;83.05
69971;BME280;57301;50.328;8.542;2022-11-20T10:05:22;98010.84;;;4.11;83.67
69971;BME280;57301;50.328;8.542;2022-11-20T10:10:44;98011.34;;;4.05;84.54
69971;BME280;57301;50.328;8.542;2022-11-20T10:16:25;98012.56;;;4.12;nan
69971;BME280;57301;50.328;8.542;2022-11-20T10:29:17;98006.03;;;4.16;83.35
69971;BME280;57301;50.328;8.542;2022-11-20T10:31:50;97994.00;;;4.23;83.10
69971;BME280;57301;50.328;8.542;2022-11-20T10:34:28;97996.75;;;4.33;83.11
69971;BME280;57301;50.328;8.542;2022-11-20T10:37:01;97994.09;;;4.33;82.68
69971;BME280;57301;50.328;8.542;2022-11-20T10:39:35;97984.19;;;4.46;82.17
69971;BME280;57301;50.328;8.542;2022-11-20T10:42:11;97983.22;;;4.47;82.70
69971;BME280;57301;50.328;8.542;2022-11-20T10:44:46;97987.63;;;4.37;82.71
69971;BME280;57301;50.328;8.542;2022-11-20T10:47:32;97988.59;;;4.36;82.85
69971;BME280;57301;50.328;8.542;2022-11-20T10:50:03;97986.78;;;4.37;82.28
69971;BME280;57301;50.328;8.542;2022-11-20T10:53:03;97991.03;;;4.49;82.91
69971;BME280;57301;50.328;8.542;2022-11-20T10:55:57;97979.66;;;4.48;82.35
69971;BME280;57301;50.328;8.542;2022-11-20T10:58:43;97969.59;;;4.42;81.87
69971;BME280;57301;50.328;8.542;2022-11-20T11:01:20;97968.75;;;4.42;82.79
69971;BME280;57301;50.328;8.542;2022-11-20T11:03:53;97965.84;;;4.24;83.42
69971;BME280;57301;50.328;8.542;2022-11-20T11:06:42;97976.47;;;4.34;84.61
69971;BME280;57301;50.328;8.542;2022-11-20T11:09:13;97965.53;;;4.38;82.79
69971;BME280;57301;50.328;8.542;2022-11-20T11:11:42;97967.53;;;4.46;83.22
69971;BME280;57301;50.328;8.542;2022-11-20T11:14:11;97973.25;;;4.51;82.52
69971;BME280;57301;50.328;8.542;2022-11-20T11:16:56;97965.66;;;4.57;82.61
69971;BME280;57301;50.328;8.542;2022-11-20T11:19:23;97968.06;;;4.61;83.05
69971;BME280;57301;50.328;8.542;2022-11-20T11:21:53;97961.91;;;4.60;82.76
69971;BME280;57301;50.328;8.542;2022-11-20T11:24:26;97963.19;;;4.66;83.08
69971;BME280;57301;50.328;8.542;2022-11-20T11:27:13;97959.03;;;4.63;83.23
69971;BME280;57301;50.328;8.542;2022-11-20T11:29:43;97951.44;;;4.49;83.14
69971;BME280;57301;50.328;8.542;2022-11-20T11:32:20;97950.50;;;4.80;82.93
69971;BME280;57301;50.328;8.542;2022-11-20T11:35:05;97946.16;;;5.00;82.43
69971;BME280;57301;50.328;8.542;2022-11-20T11:37:34;97947.56;;;5.04;81.40
69971;BME280;57301;50.328;8.542;2022-11-20T11:40:03;97939.34;;;4.98;81.13
69971;BME280;57301;50.328;8.542;2022-11-20T11:42:56;97943.50;;;5.00;81.71
69971;BME280;57301;50.328;8.542;2022-11-20T11:45:24;97935.44;;;4.92;82.71
69971;BME280;57301;50.328;8.542;2022-11-20T11:47:52;97935.44;;;4.92;82.75
69971;BME280;57301;50.328;8.542;2022-11-20T11:50:22;97935.28;;;4.94;83.18
69971;BME280;57301;50.328;8.542;2022-11-20T11:53:14;97926.53;;;5.03;82.98
69971;BME280;57301;50.328;8.542;2022-11-20T11:56:03;97937.13;;;5.03;82.02
69971;BME280;57301;50.328;8.542;2022-11-20T11:58:52;97913.53;;;5.21;82.38
69971;BME280;57301;50.328;8.542;2022-11-20T12:04:21;97907.19;;;5.33;80.80
69971;BME280;57301;50.328;8.542;2022-11-20T12:07:13;97906.63;;;5.29;80.66
69971;BME280;57301;50.328;8.542;2022-11-20T12:10:02;97909.38;;;5.18;81.11
69971;BME280;57301;50.328;8.542;2022-11-20T12:12:39;97911.66;;;5.02;81.63
69971;BME280;57301;50.328;8.542;2022-11-20T12:15:11;97911.13;;;5.08;81.15
69971;BME280;57301;50.328;8.542;2022-11-20T12:17:39;97906.53;;;5.00;81.80
69971;BME280;57301;50.328;8.542;2022-11-20T12:20:13;97905.41;;;5.03;81.81
69971;BME280;57301;50.328;8.542;2022-11-20T12:22:52;97896.84;;;5.10;82.21
69971;BME280;57301;50.328;8.542;2022-11-20T12:25:27;97885.44;;;5.10;81.04
69971;BME280;57301;50.328;8.542;2022-11-20T12:28:08;97897.75;;;5.00;82.54
69971;BME280;57301;50.328;8.542;2022-11-20T12:31:37;97902.22;;;4.99;82.26
69971;BME280;57301;50.328;8.542;2022-11-20T12:33:47;97908.16;;;4.92;82.07
69971;BME280;57301;50.328;8.542;2022-11-20T12:36:32;97910.16;;;5.09;82.49
69971;BME280;57301;50.328;8.542;2022-11-20T12:50:51;97894.63;;;5.25;81.51
69971;BME280;57301;50.328;8.542;2022-11-20T12:54:14;97880.88;;;5.22;81.61
69971;BME280;57301;50.328;8.542;2022-11-20T12:59:48;97881.81;;;5.21;82.13
69971;BME280;57301;50.328;8.542;2022-11-20T13:02:34;97884.94;;;4.95;81.99
69971;BME280;57301;50.328;8.542;2022-11-20T13:05:15;97874.81;;;5.00;83.12
69971;BME280;57301;50.328;8.542;2022-11-20T13:07:45;97873.00;;;5.01;83.28
69971;BME280;57301;50.328;8.542;2022-11-20T13:10:21;97875.63;;;4.91;82.69
69971;BME280;57301;50.328;8.542;2022-11-20T13:12:58;97867.56;;;4.93;82.89
69971;BME280;57301;50.328;8.542;2022-11-20T13:15:44;97860.72;;;4.90;83.45
69971;BME280;57301;50.328;8.542;2022-11-20T13:18:15;97868.78;;;4.79;84.64
69971;BME280;57301;50.328;8.542;2022-11-20T13:20:46;97864.66;;;4.65;85.18
69971;BME280;57301;50.328;8.542;2022-11-20T13:23:26;97867.88;;;4.69;86.25
69971;BME280;57301;50.328;8.542;2022-11-20T13:26:15;97862.00;;;4.55;86.71
69971;BME280;57301;50.328;8.542;2022-11-20T13:28:42;97859.59;;;4.52;86.99
69971;BME280;57301;50.328;8.542;2022-11-20T13:31:34;97852.59;;;4.42;87.79
69971;BME280;57301;50.328;8.542;2022-11-20T13:34:04;97849.44;;;4.48;87.97
69971;BME280;57301;50.328;8.542;2022-11-20T13:36:32;97858.78;;;4.52;88.12
69971;BME280;57301;50.328;8.542;2022-11-20T13:39:01;97851.81;;;4.51;88.54
69971;BME280;57301;50.328;8.542;2022-11-20T13:41:30;97847.91;;;4.45;88.34
69971;BME280;57301;50.328;8.542;2022-11-20T13:44:10;97843.66;;;4.33;87.44
69971;BME280;57301;50.328;8.542;2022-11-20T13:46:44;97843.38;;;3.53;91.70
69971;BME280;57301;50.328;8.542;2022-11-20T13:49:33;97840.41;;;3.78;92.58
69971;BME280;57301;50.328;8.542;2022-11-20T13:52:26;97836.78;;;3.79;91.55
69971;BME280;57301;50.328;8.542;2022-11-20T13:55:26;97820.44;;;3.64;92.87
69971;BME280;57301;50.328;8.542;2022-11-20T13:57:59;97820.69;;;3.61;92.99
69971;BME280;57301;50.328;8.542;2022-11-20T14:00:30;97821.53;;;3.62;93.96
69971;BME280;57301;50.328;8.542;2022-11-20T14:06:02;97822.81;;;3.67;93.67
69971;BME280;57301;50.328;8.542;2022-11-20T14:08:48;97817.69;;;4.08;91.91
69971;BME280;57301;50.328;8.542;2022-11-20T14:11:23;97809.31;;;3.61;93.66
69971;BME280;57301;50.328;8.542;2022-11-20T14:14:03;97810.97;;;3.94;92.61
69971;BME280;57301;50.328;8.542;2022-11-20T14:16:35;97798.00;;;4.12;91.10
69971;BME280;57301;50.328;8.542;2022-11-20T14:22:07;97806.50;;;3.53;94.40
69971;BME280;57301;50.328;8.542;2022-11-20T14:24:34;97808.88;;;3.76;94.23